createdAt,value
2022-08-22T00:08:53.441Z,13.65
2022-08-22T00:19:22.492Z,17.25
2022-08-22T00:29:51.275Z,15.00
2022-08-22T00:40:41.277Z,15.02
2022-08-22T00:51:24.594Z,13.80
2022-08-22T01:01:58.458Z,14.63
2022-08-22T01:12:38.581Z,12.48
2022-08-22T01:23:25.527Z,14.10
2022-08-22T01:34:51.379Z,17.27
2022-08-22T01:45:41.568Z,15.18
2022-08-22T01:56:10.403Z,14.90
2022-08-22T02:06:39.627Z,14.52
2022-08-22T02:17:14.982Z,13.05
2022-08-22T02:27:45.358Z,13.33
2022-08-22T02:38:20.896Z,10.23
2022-08-22T02:48:49.232Z,12.10
2022-08-22T02:59:24.834Z,13.27
2022-08-22T03:09:52.791Z,12.70
2022-08-22T03:20:21.287Z,10.77
2022-08-22T03:30:45.268Z,9.63
2022-08-22T03:41:26.670Z,11.02
2022-08-22T03:52:06.314Z,11.55
2022-08-22T04:03:19.163Z,11.43
2022-08-22T04:14:16.337Z,12.63
2022-08-22T04:24:53.665Z,13.38
2022-08-22T04:35:27.345Z,11.95
2022-08-22T04:45:53.419Z,12.35
2022-08-22T04:56:26.184Z,13.33
2022-08-22T05:06:51.594Z,10.90
2022-08-22T05:17:19.784Z,11.13
2022-08-22T05:27:45.782Z,14.55
2022-08-22T05:48:42.225Z,13.43
2022-08-22T05:59:21.857Z,9.10
2022-08-22T06:10:17.622Z,11.52
2022-08-22T06:20:45.165Z,10.32
2022-08-22T06:31:07.722Z,10.75
2022-08-22T06:41:36.774Z,11.13
2022-08-22T06:52:02.454Z,8.85
2022-08-22T07:02:34.397Z,8.82
2022-08-22T07:13:08.325Z,9.02
2022-08-22T07:34:39.582Z,10.85
2022-08-22T07:45:11.868Z,8.50
2022-08-22T07:56:05.543Z,5.60
2022-08-22T08:17:54.592Z,4.90
2022-08-22T08:29:05.202Z,4.38
2022-08-22T08:39:40.402Z,6.40
2022-08-22T08:50:52.378Z,6.95
2022-08-22T09:01:50.706Z,2.72
2022-08-22T09:12:29.856Z,3.78
2022-08-22T09:23:36.806Z,5.53
2022-08-22T09:34:08.441Z,5.35
2022-08-22T09:44:39.995Z,8.80
2022-08-22T09:55:13.415Z,4.07
2022-08-22T10:05:46.438Z,3.88
2022-08-22T10:16:22.234Z,7.95
2022-08-22T10:26:50.806Z,5.03
2022-08-22T10:37:23.909Z,5.03
2022-08-22T10:48:27.352Z,6.35
2022-08-22T10:58:56.209Z,4.60
2022-08-22T11:09:43.844Z,5.15
2022-08-22T11:20:21.450Z,6.93
2022-08-22T11:30:52.306Z,5.40
2022-08-22T11:41:23.972Z,3.97
2022-08-22T11:52:04.408Z,3.58
2022-08-22T12:02:43.321Z,7.32
2022-08-22T12:24:19.274Z,10.75
2022-08-22T12:34:56.171Z,4.57
2022-08-22T12:45:40.618Z,3.10
2022-08-22T12:56:13.774Z,3.35
2022-08-22T13:07:08.324Z,3.92
2022-08-22T13:18:29.950Z,4.05
2022-08-22T13:29:24.777Z,4.57
2022-08-22T13:39:45.022Z,4.45
2022-08-22T13:50:14.737Z,5.00
2022-08-22T14:01:33.078Z,3.63
2022-08-22T14:12:12.151Z,4.68
2022-08-22T14:22:36.742Z,4.72
2022-08-22T14:33:22.601Z,5.30
2022-08-22T14:44:08.575Z,5.97
2022-08-22T14:54:34.705Z,5.60
2022-08-22T15:04:57.730Z,3.20
2022-08-22T15:15:32.684Z,5.60
2022-08-22T15:26:18.008Z,5.50
2022-08-22T15:37:09.875Z,5.45
2022-08-22T15:47:37.579Z,5.80
2022-08-22T15:58:04.603Z,2.83
2022-08-22T16:08:33.282Z,8.27
2022-08-22T16:19:19.626Z,5.43
2022-08-22T16:29:43.186Z,8.98
2022-08-22T16:40:16.622Z,7.60
2022-08-22T16:50:40.904Z,5.87
2022-08-22T17:01:35.208Z,4.22
2022-08-22T17:12:10.798Z,4.63
2022-08-22T17:23:04.297Z,3.88
2022-08-22T17:34:11.380Z,5.43
2022-08-22T17:44:48.998Z,4.45
2022-08-22T17:55:18.002Z,5.60
2022-08-22T18:06:41.267Z,6.28
2022-08-22T18:17:16.698Z,6.32
2022-08-22T18:27:52.546Z,3.45
2022-08-22T18:38:46.460Z,3.55
2022-08-22T18:49:45.721Z,4.20
2022-08-22T19:00:14.735Z,6.82
2022-08-22T19:10:49.684Z,5.22
2022-08-22T19:21:46.598Z,9.57
2022-08-22T19:32:14.486Z,8.52
2022-08-22T19:42:46.814Z,5.10
2022-08-22T19:53:22.579Z,4.30
2022-08-22T20:03:53.710Z,6.68
2022-08-22T20:14:30.710Z,5.55
2022-08-22T20:24:57.789Z,5.25
2022-08-22T20:35:22.436Z,5.03
2022-08-22T20:46:04.055Z,7.35
2022-08-22T20:56:38.212Z,8.20
2022-08-22T21:07:12.302Z,6.17
2022-08-22T21:17:34.409Z,7.60
2022-08-22T21:28:05.066Z,10.20
2022-08-22T21:38:30.016Z,6.18
2022-08-22T21:49:07.214Z,4.82
2022-08-22T21:59:52.228Z,6.70
2022-08-22T22:10:22.804Z,8.73
2022-08-22T22:20:45.483Z,8.13
2022-08-22T22:31:09.396Z,4.28
2022-08-22T22:41:31.964Z,8.75
2022-08-22T22:52:07.712Z,6.65
2022-08-22T23:02:43.107Z,9.25
2022-08-22T23:13:19.692Z,11.07
2022-08-22T23:23:54.907Z,7.20
2022-08-22T23:34:37.872Z,6.88
2022-08-22T23:45:15.839Z,7.55
2022-08-22T23:55:38.812Z,6.65
